sensor_id;sensor_type;location;lat;lon;timestamp;P1;durP1;ratioP1;P2;durP2;ratioP2
9288;SDS011;4683;50.864;12.086;2022-11-15T00:01:31;14.33;;;12.30;;
9288;SDS011;4683;50.864;12.086;2022-11-15T00:04:00;15.30;;;12.63;;
9288;SDS011;4683;50.864;12.086;2022-11-15T00:06:28;13.63;;;12.10;;
9288;SDS011;4683;50.864;12.086;2022-11-15T00:08:57;13.13;;;11.47;;
9288;SDS011;4683;50.864;12.086;2022-11-15T00:11:26;14.47;;;11.53;;
9288;SDS011;4683;50.864;12.086;2022-11-15T00:13:57;13.27;;;11.80;;
9288;SDS011;4683;50.864;12.086;2022-11-15T00:16:28;13.43;;;12.00;;
9288;SDS011;4683;50.864;12.086;2022-11-15T00:18:57;14.77;;;12.07;;
9288;SDS011;4683;50.864;12.086;2022-11-15T00:21:25;15.23;;;12.33;;
9288;SDS011;4683;50.864;12.086;2022-11-15T00:23:54;13.60;;;12.07;;
9288;SDS011;4683;50.864;12.086;2022-11-15T00:26:23;13.33;;;11.37;;
9288;SDS011;4683;50.864;12.086;2022-11-15T00:28:51;13.30;;;11.83;;
9288;SDS011;4683;50.864;12.086;2022-11-15T00:31:22;13.37;;;11.97;;
9288;SDS011;4683;50.864;12.086;2022-11-15T00:33:51;14.23;;;11.87;;
9288;SDS011;4683;50.864;12.086;2022-11-15T00:36:19;15.07;;;11.67;;
9288;SDS011;4683;50.864;12.086;2022-11-15T00:38:48;14.40;;;12.00;;
9288;SDS011;4683;50.864;12.086;2022-11-15T00:41:17;14.87;;;11.23;;
9288;SDS011;4683;50.864;12.086;2022-11-15T00:43:46;13.30;;;11.57;;
9288;SDS011;4683;50.864;12.086;2022-11-15T00:46:14;14.70;;;12.50;;
9288;SDS011;4683;50.864;12.086;2022-11-15T00:48:44;14.87;;;12.40;;
9288;SDS011;4683;50.864;12.086;2022-11-15T00:51:14;14.70;;;12.50;;
9288;SDS011;4683;50.864;12.086;2022-11-15T00:53:42;12.70;;;11.30;;
9288;SDS011;4683;50.864;12.086;2022-11-15T00:56:10;13.30;;;11.60;;
9288;SDS011;4683;50.864;12.086;2022-11-15T00:58:39;14.33;;;12.07;;
9288;SDS011;4683;50.864;12.086;2022-11-15T01:01:08;13.33;;;11.00;;
9288;SDS011;4683;50.864;12.086;2022-11-15T01:03:39;15.00;;;11.60;;
9288;SDS011;4683;50.864;12.086;2022-11-15T01:06:11;14.03;;;11.33;;
9288;SDS011;4683;50.864;12.086;2022-11-15T01:16:05;11.90;;;10.70;;
9288;SDS011;4683;50.864;12.086;2022-11-15T01:18:36;13.47;;;11.40;;
9288;SDS011;4683;50.864;12.086;2022-11-15T01:21:07;13.13;;;10.97;;
9288;SDS011;4683;50.864;12.086;2022-11-15T01:23:38;13.20;;;11.43;;
9288;SDS011;4683;50.864;12.086;2022-11-15T01:26:08;13.10;;;11.00;;
9288;SDS011;4683;50.864;12.086;2022-11-15T01:28:40;12.20;;;10.90;;
9288;SDS011;4683;50.864;12.086;2022-11-15T01:31:11;13.17;;;11.60;;
9288;SDS011;4683;50.864;12.086;2022-11-15T01:33:42;13.20;;;10.70;;
9288;SDS011;4683;50.864;12.086;2022-11-15T01:36:11;13.23;;;10.90;;
9288;SDS011;4683;50.864;12.086;2022-11-15T01:38:43;12.93;;;11.20;;
9288;SDS011;4683;50.864;12.086;2022-11-15T01:41:16;12.60;;;10.90;;
9288;SDS011;4683;50.864;12.086;2022-11-15T01:43:46;14.03;;;11.17;;
9288;SDS011;4683;50.864;12.086;2022-11-15T01:46:23;13.87;;;10.90;;
9288;SDS011;4683;50.864;12.086;2022-11-15T01:48:58;12.40;;;10.37;;
9288;SDS011;4683;50.864;12.086;2022-11-15T01:51:32;14.00;;;11.10;;
9288;SDS011;4683;50.864;12.086;2022-11-15T01:57:11;14.13;;;11.70;;
9288;SDS011;4683;50.864;12.086;2022-11-15T01:59:41;14.07;;;11.83;;
9288;SDS011;4683;50.864;12.086;2022-11-15T02:02:11;13.03;;;11.63;;
9288;SDS011;4683;50.864;12.086;2022-11-15T02:04:41;15.60;;;11.20;;
9288;SDS011;4683;50.864;12.086;2022-11-15T02:07:13;12.57;;;11.10;;
9288;SDS011;4683;50.864;12.086;2022-11-15T02:09:45;14.23;;;11.53;;
9288;SDS011;4683;50.864;12.086;2022-11-15T02:12:17;13.00;;;11.03;;
9288;SDS011;4683;50.864;12.086;2022-11-15T02:14:48;13.33;;;11.93;;
9288;SDS011;4683;50.864;12.086;2022-11-15T02:17:26;12.47;;;10.93;;
9288;SDS011;4683;50.864;12.086;2022-11-15T02:20:30;15.20;;;10.83;;
9288;SDS011;4683;50.864;12.086;2022-11-15T02:30:01;15.13;;;11.93;;
9288;SDS011;4683;50.864;12.086;2022-11-15T02:32:57;12.63;;;10.80;;
9288;SDS011;4683;50.864;12.086;2022-11-15T02:35:34;14.10;;;11.97;;
9288;SDS011;4683;50.864;12.086;2022-11-15T02:38:12;13.73;;;11.43;;
9288;SDS011;4683;50.864;12.086;2022-11-15T02:40:52;14.87;;;11.80;;
9288;SDS011;4683;50.864;12.086;2022-11-15T02:43:26;13.00;;;11.60;;
9288;SDS011;4683;50.864;12.086;2022-11-15T02:46:19;15.57;;;11.73;;
9288;SDS011;4683;50.864;12.086;2022-11-15T02:49:09;14.67;;;11.57;;
9288;SDS011;4683;50.864;12.086;2022-11-15T02:51:41;13.43;;;11.80;;
9288;SDS011;4683;50.864;12.086;2022-11-15T02:54:17;13.03;;;10.80;;
9288;SDS011;4683;50.864;12.086;2022-11-15T02:56:48;14.07;;;12.20;;
9288;SDS011;4683;50.864;12.086;2022-11-15T02:59:25;12.80;;;11.20;;
9288;SDS011;4683;50.864;12.086;2022-11-15T03:02:20;14.17;;;11.87;;
9288;SDS011;4683;50.864;12.086;2022-11-15T03:05:24;14.10;;;11.87;;
9288;SDS011;4683;50.864;12.086;2022-11-15T03:08:04;12.77;;;10.93;;
9288;SDS011;4683;50.864;12.086;2022-11-15T03:10:41;14.67;;;11.43;;
9288;SDS011;4683;50.864;12.086;2022-11-15T03:13:19;14.20;;;11.47;;
9288;SDS011;4683;50.864;12.086;2022-11-15T03:15:54;13.47;;;10.90;;
9288;SDS011;4683;50.864;12.086;2022-11-15T03:18:32;14.60;;;10.93;;
9288;SDS011;4683;50.864;12.086;2022-11-15T03:21:05;12.30;;;10.77;;
9288;SDS011;4683;50.864;12.086;2022-11-15T03:23:37;13.73;;;10.97;;
9288;SDS011;4683;50.864;12.086;2022-11-15T03:26:07;13.27;;;11.10;;
9288;SDS011;4683;50.864;12.086;2022-11-15T03:28:40;14.43;;;10.67;;
9288;SDS011;4683;50.864;12.086;2022-11-15T03:31:13;15.43;;;12.63;;
9288;SDS011;4683;50.864;12.086;2022-11-15T03:34:04;14.03;;;11.57;;
9288;SDS011;4683;50.864;12.086;2022-11-15T03:36:38;13.07;;;11.43;;
9288;SDS011;4683;50.864;12.086;2022-11-15T03:39:07;12.40;;;10.80;;
9288;SDS011;4683;50.864;12.086;2022-11-15T03:41:37;13.70;;;11.23;;
9288;SDS011;4683;50.864;12.086;2022-11-15T03:44:13;13.07;;;10.70;;
9288;SDS011;4683;50.864;12.086;2022-11-15T03:46:50;14.40;;;11.23;;
9288;SDS011;4683;50.864;12.086;2022-11-15T03:49:27;17.67;;;11.33;;
9288;SDS011;4683;50.864;12.086;2022-11-15T03:52:03;14.53;;;11.47;;
9288;SDS011;4683;50.864;12.086;2022-11-15T03:54:32;14.60;;;11.47;;
9288;SDS011;4683;50.864;12.086;2022-11-15T03:57:01;13.63;;;11.63;;
9288;SDS011;4683;50.864;12.086;2022-11-15T03:59:29;13.60;;;11.40;;
9288;SDS011;4683;50.864;12.086;2022-11-15T04:01:58;13.17;;;11.00;;
9288;SDS011;4683;50.864;12.086;2022-11-15T04:04:28;14.23;;;12.10;;
9288;SDS011;4683;50.864;12.086;2022-11-15T04:06:56;14.90;;;11.10;;
9288;SDS011;4683;50.864;12.086;2022-11-15T04:09:24;11.53;;;9.77;;
9288;SDS011;4683;50.864;12.086;2022-11-15T04:11:53;12.27;;;10.73;;
9288;SDS011;4683;50.864;12.086;2022-11-15T04:14:22;11.57;;;10.00;;
9288;SDS011;4683;50.864;12.086;2022-11-15T04:16:50;14.27;;;11.03;;
9288;SDS011;4683;50.864;12.086;2022-11-15T04:19:19;13.80;;;10.33;;
9288;SDS011;4683;50.864;12.086;2022-11-15T04:22:11;13.60;;;11.13;;
9288;SDS011;4683;50.864;12.086;2022-11-15T04:24:56;14.30;;;11.50;;
9288;SDS011;4683;50.864;12.086;2022-11-15T04:27:25;14.07;;;11.17;;
9288;SDS011;4683;50.864;12.086;2022-11-15T04:29:54;13.77;;;10.90;;
9288;SDS011;4683;50.864;12.086;2022-11-15T04:32:23;13.30;;;11.10;;
9288;SDS011;4683;50.864;12.086;2022-11-15T04:34:52;13.30;;;10.50;;
9288;SDS011;4683;50.864;12.086;2022-11-15T04:37:21;13.77;;;10.37;;
9288;SDS011;4683;50.864;12.086;2022-11-15T04:39:50;14.10;;;11.37;;
9288;SDS011;4683;50.864;12.086;2022-11-15T04:42:19;12.17;;;10.83;;
9288;SDS011;4683;50.864;12.086;2022-11-15T04:44:47;14.00;;;10.80;;
9288;SDS011;4683;50.864;12.086;2022-11-15T04:47:15;13.47;;;10.77;;
9288;SDS011;4683;50.864;12.086;2022-11-15T04:49:44;11.40;;;9.83;;
9288;SDS011;4683;50.864;12.086;2022-11-15T04:52:13;12.97;;;10.03;;
9288;SDS011;4683;50.864;12.086;2022-11-15T04:54:43;13.27;;;10.57;;
9288;SDS011;4683;50.864;12.086;2022-11-15T04:57:11;11.33;;;10.00;;
9288;SDS011;4683;50.864;12.086;2022-11-15T04:59:40;13.80;;;10.27;;
9288;SDS011;4683;50.864;12.086;2022-11-15T05:02:09;12.33;;;10.83;;
9288;SDS011;4683;50.864;12.086;2022-11-15T05:04:37;12.10;;;10.10;;
9288;SDS011;4683;50.864;12.086;2022-11-15T05:07:05;13.77;;;11.23;;
9288;SDS011;4683;50.864;12.086;2022-11-15T05:09:34;11.97;;;10.37;;
9288;SDS011;4683;50.864;12.086;2022-11-15T05:12:04;14.07;;;10.40;;
9288;SDS011;4683;50.864;12.086;2022-11-15T05:14:32;11.40;;;9.97;;
9288;SDS011;4683;50.864;12.086;2022-11-15T05:17:01;13.77;;;11.33;;
9288;SDS011;4683;50.864;12.086;2022-11-15T05:19:29;10.63;;;9.47;;
9288;SDS011;4683;50.864;12.086;2022-11-15T05:21:58;11.00;;;9.27;;
9288;SDS011;4683;50.864;12.086;2022-11-15T05:24:29;12.17;;;9.80;;
9288;SDS011;4683;50.864;12.086;2022-11-15T05:26:59;12.77;;;9.53;;
9288;SDS011;4683;50.864;12.086;2022-11-15T05:29:29;12.57;;;10.17;;
9288;SDS011;4683;50.864;12.086;2022-11-15T05:31:58;12.17;;;10.03;;
9288;SDS011;4683;50.864;12.086;2022-11-15T05:34:27;14.00;;;9.70;;
9288;SDS011;4683;50.864;12.086;2022-11-15T05:36:55;12.80;;;10.10;;
9288;SDS011;4683;50.864;12.086;2022-11-15T05:39:24;11.60;;;9.43;;
9288;SDS011;4683;50.864;12.086;2022-11-15T05:41:53;11.83;;;10.00;;
9288;SDS011;4683;50.864;12.086;2022-11-15T05:44:26;12.87;;;10.37;;
9288;SDS011;4683;50.864;12.086;2022-11-15T05:46:56;13.13;;;10.53;;
9288;SDS011;4683;50.864;12.086;2022-11-15T05:49:26;12.93;;;10.93;;
9288;SDS011;4683;50.864;12.086;2022-11-15T05:51:58;13.73;;;10.73;;
9288;SDS011;4683;50.864;12.086;2022-11-15T05:54:27;13.97;;;11.67;;
9288;SDS011;4683;50.864;12.086;2022-11-15T05:56:55;19.47;;;13.93;;
9288;SDS011;4683;50.864;12.086;2022-11-15T05:59:24;15.37;;;12.17;;
9288;SDS011;4683;50.864;12.086;2022-11-15T06:01:53;12.97;;;11.03;;
9288;SDS011;4683;50.864;12.086;2022-11-15T06:04:22;12.83;;;10.93;;
9288;SDS011;4683;50.864;12.086;2022-11-15T06:06:51;12.77;;;10.53;;
9288;SDS011;4683;50.864;12.086;2022-11-15T06:09:20;10.60;;;9.23;;
9288;SDS011;4683;50.864;12.086;2022-11-15T06:11:48;12.30;;;10.20;;
9288;SDS011;4683;50.864;12.086;2022-11-15T06:14:17;12.73;;;10.13;;
9288;SDS011;4683;50.864;12.086;2022-11-15T06:16:50;12.27;;;9.93;;
9288;SDS011;4683;50.864;12.086;2022-11-15T06:19:19;13.67;;;9.97;;
9288;SDS011;4683;50.864;12.086;2022-11-15T06:21:50;10.73;;;8.97;;
9288;SDS011;4683;50.864;12.086;2022-11-15T06:24:18;11.13;;;9.60;;
9288;SDS011;4683;50.864;12.086;2022-11-15T06:26:46;13.77;;;8.73;;
9288;SDS011;4683;50.864;12.086;2022-11-15T06:29:17;10.33;;;9.23;;
9288;SDS011;4683;50.864;12.086;2022-11-15T06:31:46;11.23;;;8.77;;
9288;SDS011;4683;50.864;12.086;2022-11-15T06:34:14;10.80;;;9.70;;
9288;SDS011;4683;50.864;12.086;2022-11-15T06:36:43;13.30;;;10.30;;
9288;SDS011;4683;50.864;12.086;2022-11-15T06:39:13;10.70;;;9.60;;
9288;SDS011;4683;50.864;12.086;2022-11-15T06:41:42;12.10;;;9.13;;
9288;SDS011;4683;50.864;12.086;2022-11-15T06:44:10;11.60;;;9.33;;
9288;SDS011;4683;50.864;12.086;2022-11-15T06:46:39;11.40;;;9.83;;
9288;SDS011;4683;50.864;12.086;2022-11-15T06:49:07;11.80;;;9.50;;
9288;SDS011;4683;50.864;12.086;2022-11-15T06:51:36;11.27;;;9.23;;
9288;SDS011;4683;50.864;12.086;2022-11-15T06:54:04;10.30;;;9.30;;
9288;SDS011;4683;50.864;12.086;2022-11-15T06:56:34;9.47;;;8.33;;
9288;SDS011;4683;50.864;12.086;2022-11-15T06:59:03;10.43;;;9.37;;
9288;SDS011;4683;50.864;12.086;2022-11-15T07:01:31;10.10;;;9.10;;
9288;SDS011;4683;50.864;12.086;2022-11-15T07:04:00;10.23;;;8.40;;
9288;SDS011;4683;50.864;12.086;2022-11-15T07:06:30;9.30;;;8.30;;
9288;SDS011;4683;50.864;12.086;2022-11-15T07:08:59;10.57;;;9.40;;
9288;SDS011;4683;50.864;12.086;2022-11-15T07:11:29;8.47;;;7.57;;
9288;SDS011;4683;50.864;12.086;2022-11-15T07:13:59;9.03;;;8.13;;
9288;SDS011;4683;50.864;12.086;2022-11-15T07:16:27;8.43;;;7.53;;
9288;SDS011;4683;50.864;12.086;2022-11-15T07:18:55;10.97;;;8.70;;
9288;SDS011;4683;50.864;12.086;2022-11-15T07:21:24;8.50;;;7.60;;
9288;SDS011;4683;50.864;12.086;2022-11-15T07:23:53;8.43;;;7.63;;
9288;SDS011;4683;50.864;12.086;2022-11-15T07:26:21;9.30;;;8.20;;
9288;SDS011;4683;50.864;12.086;2022-11-15T07:28:54;10.50;;;8.67;;
9288;SDS011;4683;50.864;12.086;2022-11-15T07:31:26;8.53;;;7.53;;
9288;SDS011;4683;50.864;12.086;2022-11-15T07:33:54;9.77;;;7.87;;
9288;SDS011;4683;50.864;12.086;2022-11-15T07:36:23;8.43;;;7.57;;
9288;SDS011;4683;50.864;12.086;2022-11-15T07:38:57;8.67;;;7.57;;
9288;SDS011;4683;50.864;12.086;2022-11-15T07:41:25;8.37;;;7.57;;
9288;SDS011;4683;50.864;12.086;2022-11-15T07:43:54;8.23;;;7.37;;
9288;SDS011;4683;50.864;12.086;2022-11-15T07:46:27;9.57;;;7.63;;
9288;SDS011;4683;50.864;12.086;2022-11-15T07:48:56;8.47;;;7.67;;
9288;SDS011;4683;50.864;12.086;2022-11-15T07:51:28;9.80;;;8.80;;
9288;SDS011;4683;50.864;12.086;2022-11-15T07:53:57;11.40;;;10.13;;
9288;SDS011;4683;50.864;12.086;2022-11-15T07:56:26;9.87;;;8.77;;
9288;SDS011;4683;50.864;12.086;2022-11-15T07:58:54;17.57;;;10.27;;
9288;SDS011;4683;50.864;12.086;2022-11-15T08:01:23;12.47;;;8.37;;
9288;SDS011;4683;50.864;12.086;2022-11-15T08:03:53;24.77;;;10.50;;
9288;SDS011;4683;50.864;12.086;2022-11-15T08:06:22;11.20;;;8.50;;
9288;SDS011;4683;50.864;12.086;2022-11-15T08:08:51;10.67;;;8.07;;
9288;SDS011;4683;50.864;12.086;2022-11-15T08:11:19;11.10;;;8.43;;
9288;SDS011;4683;50.864;12.086;2022-11-15T08:13:47;16.20;;;10.13;;
9288;SDS011;4683;50.864;12.086;2022-11-15T08:16:17;9.87;;;8.03;;
9288;SDS011;4683;50.864;12.086;2022-11-15T08:18:49;9.20;;;7.73;;
9288;SDS011;4683;50.864;12.086;2022-11-15T08:21:19;10.30;;;8.60;;
9288;SDS011;4683;50.864;12.086;2022-11-15T08:23:50;8.83;;;7.97;;
9288;SDS011;4683;50.864;12.086;2022-11-15T08:26:18;9.10;;;8.20;;
9288;SDS011;4683;50.864;12.086;2022-11-15T08:28:47;8.03;;;7.23;;
9288;SDS011;4683;50.864;12.086;2022-11-15T08:31:21;9.67;;;7.97;;
9288;SDS011;4683;50.864;12.086;2022-11-15T08:33:49;8.07;;;7.27;;
9288;SDS011;4683;50.864;12.086;2022-11-15T08:36:19;8.17;;;7.37;;
9288;SDS011;4683;50.864;12.086;2022-11-15T08:38:47;8.67;;;7.60;;
9288;SDS011;4683;50.864;12.086;2022-11-15T08:41:18;7.87;;;7.07;;
9288;SDS011;4683;50.864;12.086;2022-11-15T08:43:53;9.23;;;7.67;;
9288;SDS011;4683;50.864;12.086;2022-11-15T08:46:21;8.40;;;7.50;;
9288;SDS011;4683;50.864;12.086;2022-11-15T08:48:50;9.13;;;7.50;;
9288;SDS011;4683;50.864;12.086;2022-11-15T08:51:20;10.67;;;8.33;;
9288;SDS011;4683;50.864;12.086;2022-11-15T08:53:48;11.17;;;8.10;;
9288;SDS011;4683;50.864;12.086;2022-11-15T08:56:17;7.77;;;6.90;;
9288;SDS011;4683;50.864;12.086;2022-11-15T08:58:46;9.83;;;7.87;;
9288;SDS011;4683;50.864;12.086;2022-11-15T09:01:15;9.13;;;7.80;;
9288;SDS011;4683;50.864;12.086;2022-11-15T09:03:45;7.83;;;6.87;;
9288;SDS011;4683;50.864;12.086;2022-11-15T09:06:14;8.47;;;6.77;;
9288;SDS011;4683;50.864;12.086;2022-11-15T09:08:44;9.67;;;7.80;;
9288;SDS011;4683;50.864;12.086;2022-11-15T09:11:15;11.40;;;7.73;;
9288;SDS011;4683;50.864;12.086;2022-11-15T09:13:46;8.20;;;7.40;;
9288;SDS011;4683;50.864;12.086;2022-11-15T09:16:14;8.53;;;7.47;;
9288;SDS011;4683;50.864;12.086;2022-11-15T09:18:43;12.00;;;7.37;;
9288;SDS011;4683;50.864;12.086;2022-11-15T09:21:11;8.77;;;7.13;;
9288;SDS011;4683;50.864;12.086;2022-11-15T09:23:40;7.40;;;6.10;;
9288;SDS011;4683;50.864;12.086;2022-11-15T09:26:12;10.47;;;7.60;;
9288;SDS011;4683;50.864;12.086;2022-11-15T09:28:40;7.57;;;6.87;;
9288;SDS011;4683;50.864;12.086;2022-11-15T09:31:09;14.40;;;8.80;;
9288;SDS011;4683;50.864;12.086;2022-11-15T09:33:38;6.60;;;5.60;;
9288;SDS011;4683;50.864;12.086;2022-11-15T09:36:12;9.63;;;7.60;;
9288;SDS011;4683;50.864;12.086;2022-11-15T09:38:41;8.20;;;7.40;;
9288;SDS011;4683;50.864;12.086;2022-11-15T09:41:34;8.77;;;7.00;;
9288;SDS011;4683;50.864;12.086;2022-11-15T09:44:37;5.67;;;5.00;;
9288;SDS011;4683;50.864;12.086;2022-11-15T09:47:35;5.60;;;5.10;;
9288;SDS011;4683;50.864;12.086;2022-11-15T09:50:55;7.87;;;6.20;;
9288;SDS011;4683;50.864;12.086;2022-11-15T09:53:28;6.80;;;6.13;;
9288;SDS011;4683;50.864;12.086;2022-11-15T09:56:03;5.50;;;5.00;;
9288;SDS011;4683;50.864;12.086;2022-11-15T09:58:44;7.87;;;5.67;;
9288;SDS011;4683;50.864;12.086;2022-11-15T10:01:23;13.57;;;10.97;;
9288;SDS011;4683;50.864;12.086;2022-11-15T10:04:07;10.03;;;8.23;;
9288;SDS011;4683;50.864;12.086;2022-11-15T10:06:36;14.27;;;12.03;;
9288;SDS011;4683;50.864;12.086;2022-11-15T10:09:12;9.97;;;7.87;;
9288;SDS011;4683;50.864;12.086;2022-11-15T10:11:46;6.10;;;5.50;;
9288;SDS011;4683;50.864;12.086;2022-11-15T10:14:17;8.70;;;5.00;;
9288;SDS011;4683;50.864;12.086;2022-11-15T10:16:56;7.20;;;5.00;;
9288;SDS011;4683;50.864;12.086;2022-11-15T10:20:02;4.90;;;4.40;;
9288;SDS011;4683;50.864;12.086;2022-11-15T10:22:41;4.83;;;4.37;;
9288;SDS011;4683;50.864;12.086;2022-11-15T10:25:21;9.73;;;6.53;;
9288;SDS011;4683;50.864;12.086;2022-11-15T10:27:55;5.10;;;4.60;;
9288;SDS011;4683;50.864;12.086;2022-11-15T10:30:32;7.83;;;5.23;;
9288;SDS011;4683;50.864;12.086;2022-11-15T10:36:16;15.00;;;6.00;;
9288;SDS011;4683;50.864;12.086;2022-11-15T10:38:54;6.63;;;4.23;;
9288;SDS011;4683;50.864;12.086;2022-11-15T10:41:35;6.83;;;4.50;;
9288;SDS011;4683;50.864;12.086;2022-11-15T10:44:17;13.57;;;5.00;;
9288;SDS011;4683;50.864;12.086;2022-11-15T10:50:00;8.03;;;4.57;;
9288;SDS011;4683;50.864;12.086;2022-11-15T10:52:33;6.70;;;4.80;;
9288;SDS011;4683;50.864;12.086;2022-11-15T10:55:05;11.00;;;5.30;;
9288;SDS011;4683;50.864;12.086;2022-11-15T10:57:53;5.97;;;4.40;;
9288;SDS011;4683;50.864;12.086;2022-11-15T11:00:29;27.83;;;6.00;;
9288;SDS011;4683;50.864;12.086;2022-11-15T11:03:05;4.23;;;3.83;;
9288;SDS011;4683;50.864;12.086;2022-11-15T11:06:03;4.43;;;4.03;;
9288;SDS011;4683;50.864;12.086;2022-11-15T11:08:36;10.80;;;6.90;;
9288;SDS011;4683;50.864;12.086;2022-11-15T11:11:05;5.00;;;4.50;;
9288;SDS011;4683;50.864;12.086;2022-11-15T11:13:35;5.80;;;4.53;;
9288;SDS011;4683;50.864;12.086;2022-11-15T11:16:11;6.07;;;5.37;;
9288;SDS011;4683;50.864;12.086;2022-11-15T11:19:17;6.67;;;4.90;;
9288;SDS011;4683;50.864;12.086;2022-11-15T11:22:14;7.03;;;4.77;;
9288;SDS011;4683;50.864;12.086;2022-11-15T11:24:55;5.33;;;4.83;;
9288;SDS011;4683;50.864;12.086;2022-11-15T11:27:42;6.40;;;4.50;;
9288;SDS011;4683;50.864;12.086;2022-11-15T11:30:29;3.70;;;3.40;;
9288;SDS011;4683;50.864;12.086;2022-11-15T11:33:13;4.37;;;3.97;;
9288;SDS011;4683;50.864;12.086;2022-11-15T11:35:53;4.43;;;3.83;;
9288;SDS011;4683;50.864;12.086;2022-11-15T11:41:27;4.13;;;3.73;;
9288;SDS011;4683;50.864;12.086;2022-11-15T11:44:17;4.83;;;3.50;;
9288;SDS011;4683;50.864;12.086;2022-11-15T11:46:56;6.00;;;4.03;;
9288;SDS011;4683;50.864;12.086;2022-11-15T11:49:30;4.30;;;3.90;;
9288;SDS011;4683;50.864;12.086;2022-11-15T11:52:10;12.47;;;5.83;;
9288;SDS011;4683;50.864;12.086;2022-11-15T11:54:53;3.97;;;3.57;;
9288;SDS011;4683;50.864;12.086;2022-11-15T11:57:32;14.63;;;5.03;;
9288;SDS011;4683;50.864;12.086;2022-11-15T12:00:13;6.10;;;3.73;;
9288;SDS011;4683;50.864;12.086;2022-11-15T12:02:50;4.10;;;3.70;;
9288;SDS011;4683;50.864;12.086;2022-11-15T12:05:35;6.00;;;4.03;;
9288;SDS011;4683;50.864;12.086;2022-11-15T12:11:17;5.40;;;4.23;;
9288;SDS011;4683;50.864;12.086;2022-11-15T12:13:56;4.90;;;4.13;;
9288;SDS011;4683;50.864;12.086;2022-11-15T12:16:28;4.00;;;3.60;;
9288;SDS011;4683;50.864;12.086;2022-11-15T12:19:00;4.50;;;4.10;;
9288;SDS011;4683;50.864;12.086;2022-11-15T12:21:33;4.00;;;3.60;;
9288;SDS011;4683;50.864;12.086;2022-11-15T12:24:13;7.30;;;3.87;;
9288;SDS011;4683;50.864;12.086;2022-11-15T12:26:48;3.53;;;3.23;;
9288;SDS011;4683;50.864;12.086;2022-11-15T12:29:23;3.40;;;3.10;;
9288;SDS011;4683;50.864;12.086;2022-11-15T12:31:58;5.90;;;3.83;;
9288;SDS011;4683;50.864;12.086;2022-11-15T12:34:37;4.20;;;3.73;;
9288;SDS011;4683;50.864;12.086;2022-11-15T12:43:02;5.83;;;3.80;;
9288;SDS011;4683;50.864;12.086;2022-11-15T12:46:01;4.53;;;3.80;;
9288;SDS011;4683;50.864;12.086;2022-11-15T12:57:30;4.33;;;3.13;;
9288;SDS011;4683;50.864;12.086;2022-11-15T13:03:16;48.53;;;12.47;;
9288;SDS011;4683;50.864;12.086;2022-11-15T13:09:03;5.47;;;4.93;;
9288;SDS011;4683;50.864;12.086;2022-11-15T13:11:50;4.70;;;4.00;;
9288;SDS011;4683;50.864;12.086;2022-11-15T13:20:23;4.73;;;3.87;;
9288;SDS011;4683;50.864;12.086;2022-11-15T13:23:00;6.70;;;5.53;;
9288;SDS011;4683;50.864;12.086;2022-11-15T13:25:50;6.73;;;3.97;;
9288;SDS011;4683;50.864;12.086;2022-11-15T13:28:43;4.53;;;3.00;;
9288;SDS011;4683;50.864;12.086;2022-11-15T13:31:21;5.27;;;4.77;;
9288;SDS011;4683;50.864;12.086;2022-11-15T13:33:59;3.43;;;3.13;;
9288;SDS011;4683;50.864;12.086;2022-11-15T13:36:30;5.50;;;4.70;;
9288;SDS011;4683;50.864;12.086;2022-11-15T13:39:02;4.27;;;3.43;;
9288;SDS011;4683;50.864;12.086;2022-11-15T13:41:33;7.80;;;5.80;;
9288;SDS011;4683;50.864;12.086;2022-11-15T13:44:19;6.87;;;5.37;;
9288;SDS011;4683;50.864;12.086;2022-11-15T13:47:01;6.47;;;5.10;;
9288;SDS011;4683;50.864;12.086;2022-11-15T13:49:40;6.07;;;5.40;;
9288;SDS011;4683;50.864;12.086;2022-11-15T13:52:13;7.03;;;6.37;;
9288;SDS011;4683;50.864;12.086;2022-11-15T13:54:43;6.07;;;4.97;;
9288;SDS011;4683;50.864;12.086;2022-11-15T13:57:18;5.60;;;5.00;;
9288;SDS011;4683;50.864;12.086;2022-11-15T13:59:51;4.83;;;4.40;;
9288;SDS011;4683;50.864;12.086;2022-11-15T14:02:25;4.57;;;3.80;;
9288;SDS011;4683;50.864;12.086;2022-11-15T14:04:58;5.83;;;4.47;;
9288;SDS011;4683;50.864;12.086;2022-11-15T14:07:35;5.23;;;4.17;;
9288;SDS011;4683;50.864;12.086;2022-11-15T14:10:17;7.33;;;4.57;;
9288;SDS011;4683;50.864;12.086;2022-11-15T14:12:54;4.30;;;3.90;;
9288;SDS011;4683;50.864;12.086;2022-11-15T14:15:28;4.47;;;4.03;;
9288;SDS011;4683;50.864;12.086;2022-11-15T14:18:01;4.30;;;3.50;;
9288;SDS011;4683;50.864;12.086;2022-11-15T14:20:32;7.03;;;5.87;;
9288;SDS011;4683;50.864;12.086;2022-11-15T14:23:03;5.17;;;4.13;;
9288;SDS011;4683;50.864;12.086;2022-11-15T14:25:33;7.30;;;5.33;;
9288;SDS011;4683;50.864;12.086;2022-11-15T14:28:13;5.33;;;4.23;;
9288;SDS011;4683;50.864;12.086;2022-11-15T14:30:57;6.83;;;5.83;;
9288;SDS011;4683;50.864;12.086;2022-11-15T14:33:29;4.37;;;3.97;;
9288;SDS011;4683;50.864;12.086;2022-11-15T14:36:03;5.97;;;5.40;;
9288;SDS011;4683;50.864;12.086;2022-11-15T14:38:37;7.60;;;5.40;;
9288;SDS011;4683;50.864;12.086;2022-11-15T14:41:10;4.47;;;3.97;;
9288;SDS011;4683;50.864;12.086;2022-11-15T14:43:48;4.27;;;3.63;;
9288;SDS011;4683;50.864;12.086;2022-11-15T14:46:17;4.80;;;4.40;;
9288;SDS011;4683;50.864;12.086;2022-11-15T14:48:49;8.03;;;5.43;;
9288;SDS011;4683;50.864;12.086;2022-11-15T14:51:17;5.57;;;5.07;;
9288;SDS011;4683;50.864;12.086;2022-11-15T14:53:46;9.50;;;7.70;;
9288;SDS011;4683;50.864;12.086;2022-11-15T14:56:15;8.47;;;7.60;;
9288;SDS011;4683;50.864;12.086;2022-11-15T14:58:44;8.40;;;6.93;;
9288;SDS011;4683;50.864;12.086;2022-11-15T15:01:13;7.03;;;5.90;;
9288;SDS011;4683;50.864;12.086;2022-11-15T15:03:49;8.20;;;7.40;;
9288;SDS011;4683;50.864;12.086;2022-11-15T15:06:19;7.60;;;5.00;;
9288;SDS011;4683;50.864;12.086;2022-11-15T15:08:49;5.93;;;5.10;;
9288;SDS011;4683;50.864;12.086;2022-11-15T15:11:19;5.40;;;4.13;;
9288;SDS011;4683;50.864;12.086;2022-11-15T15:13:51;6.33;;;5.50;;
9288;SDS011;4683;50.864;12.086;2022-11-15T15:16:23;12.37;;;9.37;;
9288;SDS011;4683;50.864;12.086;2022-11-15T15:18:53;7.77;;;5.90;;
9288;SDS011;4683;50.864;12.086;2022-11-15T15:21:21;10.50;;;8.07;;
9288;SDS011;4683;50.864;12.086;2022-11-15T15:23:53;8.60;;;5.83;;
9288;SDS011;4683;50.864;12.086;2022-11-15T15:26:22;8.00;;;6.33;;
9288;SDS011;4683;50.864;12.086;2022-11-15T15:28:51;8.27;;;6.27;;
9288;SDS011;4683;50.864;12.086;2022-11-15T15:31:21;12.47;;;7.03;;
9288;SDS011;4683;50.864;12.086;2022-11-15T15:33:53;12.83;;;8.40;;
9288;SDS011;4683;50.864;12.086;2022-11-15T15:36:21;11.00;;;7.70;;
9288;SDS011;4683;50.864;12.086;2022-11-15T15:38:50;12.67;;;7.10;;
9288;SDS011;4683;50.864;12.086;2022-11-15T15:41:19;6.80;;;4.57;;
9288;SDS011;4683;50.864;12.086;2022-11-15T15:43:48;10.20;;;6.70;;
9288;SDS011;4683;50.864;12.086;2022-11-15T15:46:20;9.77;;;6.40;;
9288;SDS011;4683;50.864;12.086;2022-11-15T15:48:48;9.63;;;7.67;;
9288;SDS011;4683;50.864;12.086;2022-11-15T15:51:18;8.37;;;7.57;;
9288;SDS011;4683;50.864;12.086;2022-11-15T15:53:47;7.00;;;5.37;;
9288;SDS011;4683;50.864;12.086;2022-11-15T15:56:16;4.97;;;4.47;;
9288;SDS011;4683;50.864;12.086;2022-11-15T15:58:48;4.63;;;4.23;;
9288;SDS011;4683;50.864;12.086;2022-11-15T16:01:18;5.80;;;4.93;;
9288;SDS011;4683;50.864;12.086;2022-11-15T16:03:47;9.37;;;8.47;;
9288;SDS011;4683;50.864;12.086;2022-11-15T16:06:37;8.17;;;7.37;;
9288;SDS011;4683;50.864;12.086;2022-11-15T16:09:11;8.87;;;6.37;;
9288;SDS011;4683;50.864;12.086;2022-11-15T16:11:42;8.80;;;7.27;;
9288;SDS011;4683;50.864;12.086;2022-11-15T16:14:13;7.43;;;5.60;;
9288;SDS011;4683;50.864;12.086;2022-11-15T16:16:41;10.07;;;7.73;;
9288;SDS011;4683;50.864;12.086;2022-11-15T16:19:10;7.93;;;6.93;;
9288;SDS011;4683;50.864;12.086;2022-11-15T16:21:40;7.87;;;6.83;;